Time;durP1;ratioP1;P1;durP2;ratioP2;P2;SDS_P1;SDS_P2;PMS_P1;PMS_P2;Temp;Humidity;BMP_temperature;BMP_pressure;BME280_temperature;BME280_humidity;BME280_pressure;Samples;Min_cycle;Max_cycle;Signal;HPM_P1;HPM_P2
2022/05/11 00:00:14;;;;;;;11.25;6.55;;;;;;;;;;5035008;28;20049;-63
2022/05/11 00:03:00;;;;;;;10.63;6.55;;;;;;;;;;5037088;28;20045;-64
2022/05/11 00:05:26;;;;;;;11.77;6.80;;;;;;;;;;5044494;28;20055;-64
2022/05/11 00:07:52;;;;;;;12.35;6.88;;;;;;;;;;5041921;28;20049;-66
2022/05/11 00:10:18;;;;;;;10.95;6.78;;;;;;;;;;5044843;28;20068;-65
2022/05/11 00:12:46;;;;;;;13.90;6.68;;;;;;;;;;5037757;28;20056;-63
2022/05/11 00:15:16;;;;;;;12.43;6.88;;;;;;;;;;5043013;28;20467;-65
2022/05/11 00:17:42;;;;;;;10.57;6.45;;;;;;;;;;5044623;28;20519;-66
2022/05/11 00:20:09;;;;;;;12.77;6.57;;;;;;;;;;5042034;28;20061;-64
2022/05/11 00:22:36;;;;;;;10.52;6.15;;;;;;;;;;5043817;28;20048;-65
2022/05/11 00:25:05;;;;;;;9.27;6.03;;;;;;;;;;5041234;28;20053;-66
2022/05/11 00:27:31;;;;;;;10.95;6.20;;;;;;;;;;5044200;28;20044;-64
2022/05/11 00:29:58;;;;;;;11.13;6.30;;;;;;;;;;5042053;28;20049;-65
2022/05/11 00:32:25;;;;;;;10.95;5.95;;;;;;;;;;5040078;28;20076;-65
2022/05/11 00:34:54;;;;;;;12.23;5.88;;;;;;;;;;5038976;28;20084;-64
2022/05/11 00:37:21;;;;;;;13.32;5.97;;;;;;;;;;5048338;28;20128;-66
2022/05/11 00:39:47;;;;;;;10.60;6.85;;;;;;;;;;5044618;28;20082;-63
2022/05/11 00:42:13;;;;;;;13.43;8.00;;;;;;;;;;5049958;28;20459;-64
2022/05/11 00:44:39;;;;;;;12.38;7.20;;;;;;;;;;5046199;28;20083;-66
2022/05/11 00:47:20;;;;;;;16.55;8.13;;;;;;;;;;5040274;28;20106;-65
2022/05/11 00:49:52;;;;;;;13.95;8.30;;;;;;;;;;5048260;28;20443;-64
2022/05/11 00:52:23;;;;;;;15.75;8.50;;;;;;;;;;5043063;28;20044;-65
2022/05/11 00:55:00;;;;;;;18.73;8.50;;;;;;;;;;5037316;28;20057;-63
2022/05/11 00:57:36;;;;;;;15.00;8.73;;;;;;;;;;5041866;28;20437;-65
2022/05/11 01:00:06;;;;;;;16.63;7.85;;;;;;;;;;5042774;28;20076;-65
2022/05/11 01:02:33;;;;;;;17.35;8.68;;;;;;;;;;5040742;28;20702;-63
2022/05/11 01:05:03;;;;;;;12.85;8.45;;;;;;;;;;5043342;28;20041;-64
2022/05/11 01:07:29;;;;;;;15.98;8.55;;;;;;;;;;5048576;28;20233;-65
2022/05/11 01:09:55;;;;;;;17.02;9.27;;;;;;;;;;5036122;28;20508;-63
2022/05/11 01:12:25;;;;;;;13.93;9.25;;;;;;;;;;5034945;28;20056;-64
2022/05/11 01:14:57;;;;;;;18.65;9.68;;;;;;;;;;5042922;28;20041;-64
2022/05/11 01:17:24;;;;;;;18.55;9.25;;;;;;;;;;5044225;28;20103;-65
2022/05/11 01:19:50;;;;;;;14.35;8.95;;;;;;;;;;5043377;28;20045;-66
2022/05/11 01:22:40;;;;;;;19.83;9.65;;;;;;;;;;5038290;28;20057;-66
2022/05/11 01:25:08;;;;;;;15.95;9.23;;;;;;;;;;5041841;28;20049;-66
2022/05/11 01:27:36;;;;;;;13.90;9.00;;;;;;;;;;5041057;28;20459;-65
2022/05/11 01:30:13;;;;;;;17.63;9.02;;;;;;;;;;5040785;28;20673;-63
2022/05/11 01:32:41;;;;;;;21.13;9.35;;;;;;;;;;5040844;28;20049;-65
2022/05/11 01:35:07;;;;;;;20.73;9.00;;;;;;;;;;5040222;28;20041;-66
2022/05/11 01:37:38;;;;;;;17.63;8.63;;;;;;;;;;5044734;28;20055;-65
2022/05/11 01:40:04;;;;;;;15.95;8.27;;;;;;;;;;5042344;28;20060;-63
2022/05/11 01:42:30;;;;;;;20.25;8.32;;;;;;;;;;5042298;28;20044;-63
2022/05/11 01:44:56;;;;;;;14.35;7.78;;;;;;;;;;5044955;28;20056;-64
2022/05/11 01:47:22;;;;;;;17.35;7.13;;;;;;;;;;5046369;28;20048;-64
2022/05/11 01:49:48;;;;;;;16.23;8.52;;;;;;;;;;5034677;28;21401;-64
2022/05/11 01:52:13;;;;;;;14.07;7.78;;;;;;;;;;5037486;28;20546;-65
2022/05/11 01:54:39;;;;;;;14.07;8.10;;;;;;;;;;5040820;28;20096;-64
2022/05/11 01:57:05;;;;;;;16.42;8.30;;;;;;;;;;5036060;28;20041;-65
2022/05/11 01:59:31;;;;;;;12.45;6.88;;;;;;;;;;5039367;28;20056;-67
2022/05/11 02:01:57;;;;;;;20.20;7.43;;;;;;;;;;5042459;28;20411;-64
2022/05/11 02:09:52;;;;;;;18.67;6.93;;;;;;;;;;5041034;28;19951;-63
2022/05/11 02:12:18;;;;;;;14.85;7.20;;;;;;;;;;5045604;28;20049;-63
2022/05/11 02:14:44;;;;;;;13.65;6.70;;;;;;;;;;5044296;28;20103;-63
2022/05/11 02:17:10;;;;;;;13.10;7.30;;;;;;;;;;5037657;28;20317;-64
2022/05/11 02:19:36;;;;;;;15.73;6.70;;;;;;;;;;5047554;28;20124;-64
2022/05/11 02:22:02;;;;;;;14.52;6.68;;;;;;;;;;5040057;28;20583;-64
2022/05/11 02:24:28;;;;;;;12.43;6.20;;;;;;;;;;5032019;28;20048;-64
2022/05/11 02:26:54;;;;;;;18.27;6.93;;;;;;;;;;5039117;28;20045;-63
2022/05/11 02:29:21;;;;;;;13.82;6.00;;;;;;;;;;5036076;28;20056;-65
2022/05/11 02:31:47;;;;;;;9.50;5.93;;;;;;;;;;5038336;28;20546;-65
2022/05/11 02:35:12;;;;;;;22.35;6.43;;;;;;;;;;5040301;28;20128;-64
2022/05/11 02:36:59;;;;;;;12.05;6.60;;;;;;;;;;5034169;28;20049;-66
2022/05/11 02:39:25;;;;;;;16.02;6.95;;;;;;;;;;5038400;28;20060;-63
2022/05/11 02:41:53;;;;;;;14.88;6.85;;;;;;;;;;5043958;28;20049;-63
2022/05/11 02:44:19;;;;;;;20.02;8.32;;;;;;;;;;5043118;28;20037;-64
2022/05/11 02:46:45;;;;;;;16.38;7.22;;;;;;;;;;5037745;28;20037;-63
2022/05/11 02:49:11;;;;;;;16.50;7.43;;;;;;;;;;5038506;28;21271;-64
2022/05/11 02:51:37;;;;;;;14.48;7.40;;;;;;;;;;5034657;28;20486;-64
2022/05/11 02:54:03;;;;;;;10.13;6.38;;;;;;;;;;5040274;28;20064;-65
2022/05/11 02:56:29;;;;;;;20.13;7.20;;;;;;;;;;5037714;28;20052;-66
2022/05/11 02:58:55;;;;;;;16.20;6.85;;;;;;;;;;5044149;28;20070;-64
2022/05/11 03:01:21;;;;;;;15.18;6.82;;;;;;;;;;5035609;28;20045;-63
2022/05/11 03:03:47;;;;;;;12.68;6.05;;;;;;;;;;5033769;28;20037;-65
2022/05/11 03:06:13;;;;;;;16.67;6.20;;;;;;;;;;5046045;28;20135;-63
2022/05/11 03:08:39;;;;;;;14.57;6.57;;;;;;;;;;5045296;28;20144;-65
2022/05/11 03:11:05;;;;;;;11.75;5.88;;;;;;;;;;5049981;28;20045;-64
2022/05/11 03:13:32;;;;;;;13.77;6.85;;;;;;;;;;5049655;28;20522;-62
2022/05/11 03:15:57;;;;;;;10.77;6.65;;;;;;;;;;5038053;28;20111;-64
2022/05/11 03:18:23;;;;;;;18.27;7.47;;;;;;;;;;5039693;28;20041;-64
2022/05/11 03:20:49;;;;;;;15.77;6.88;;;;;;;;;;5047104;28;20515;-62
2022/05/11 03:23:15;;;;;;;18.23;7.68;;;;;;;;;;5034848;28;20278;-64
2022/05/11 03:25:41;;;;;;;19.20;8.75;;;;;;;;;;5035291;28;20049;-63
2022/05/11 03:28:07;;;;;;;28.75;10.82;;;;;;;;;;5036985;28;20136;-64
2022/05/11 03:30:33;;;;;;;18.52;10.30;;;;;;;;;;5042925;28;20190;-64
2022/05/11 03:35:44;;;;;;;23.13;12.40;;;;;;;;;;5030087;28;20446;-63
2022/05/11 03:38:10;;;;;;;24.90;12.45;;;;;;;;;;5034318;28;20055;-63
2022/05/11 03:40:37;;;;;;;24.85;11.98;;;;;;;;;;5034460;28;20046;-63
2022/05/11 03:43:04;;;;;;;21.05;11.18;;;;;;;;;;5038422;28;20053;-63
2022/05/11 03:45:29;;;;;;;20.23;10.27;;;;;;;;;;5039409;28;20041;-65
2022/05/11 03:47:56;;;;;;;19.40;9.52;;;;;;;;;;5040616;28;20044;-62
2022/05/11 03:50:23;;;;;;;18.10;8.13;;;;;;;;;;5045480;28;20052;-63
2022/05/11 03:52:50;;;;;;;16.48;8.18;;;;;;;;;;5039437;28;20111;-63
2022/05/11 03:55:17;;;;;;;18.60;7.43;;;;;;;;;;5034355;28;20051;-63
2022/05/11 03:57:43;;;;;;;14.77;6.43;;;;;;;;;;5042675;28;20125;-64
2022/05/11 04:00:12;;;;;;;12.88;6.53;;;;;;;;;;5047303;28;20057;-64
2022/05/11 04:02:39;;;;;;;15.45;6.57;;;;;;;;;;5044009;28;20041;-64
2022/05/11 04:05:06;;;;;;;19.08;6.75;;;;;;;;;;5049651;28;20052;-63
2022/05/11 04:07:33;;;;;;;12.13;5.78;;;;;;;;;;5037077;28;20049;-63
2022/05/11 04:09:59;;;;;;;15.98;6.32;;;;;;;;;;5039030;28;20045;-63
2022/05/11 04:12:27;;;;;;;10.88;6.05;;;;;;;;;;5047427;28;20154;-64
2022/05/11 04:14:53;;;;;;;16.48;6.57;;;;;;;;;;5045759;28;20052;-64
2022/05/11 04:17:19;;;;;;;16.35;6.35;;;;;;;;;;5044711;28;20033;-62
2022/05/11 04:19:45;;;;;;;16.23;5.97;;;;;;;;;;5044633;28;20056;-63
2022/05/11 04:22:11;;;;;;;14.52;6.20;;;;;;;;;;5047343;28;20033;-65
2022/05/11 04:24:36;;;;;;;20.38;6.45;;;;;;;;;;5048145;28;20056;-62
2022/05/11 04:27:35;;;;;;;11.27;6.55;;;;;;;;;;5047129;28;20083;-63
2022/05/11 04:30:04;;;;;;;14.57;6.30;;;;;;;;;;5048770;28;20606;-62
2022/05/11 04:32:30;;;;;;;14.45;5.90;;;;;;;;;;5048206;28;20095;-65
2022/05/11 04:34:55;;;;;;;10.93;5.55;;;;;;;;;;5049559;28;20061;-62
2022/05/11 04:37:21;;;;;;;17.45;6.10;;;;;;;;;;5049436;28;20167;-63
2022/05/11 04:39:47;;;;;;;19.27;6.50;;;;;;;;;;5045181;28;20042;-64
2022/05/11 04:42:13;;;;;;;22.05;7.03;;;;;;;;;;5032931;28;20045;-63
2022/05/11 04:44:38;;;;;;;17.58;6.28;;;;;;;;;;5039643;28;20052;-65
2022/05/11 04:47:09;;;;;;;21.65;5.85;;;;;;;;;;5043508;28;20055;-63
2022/05/11 04:49:36;;;;;;;13.55;5.40;;;;;;;;;;5044260;28;20048;-64
2022/05/11 04:52:09;;;;;;;16.00;5.80;;;;;;;;;;5044940;28;20055;-64
2022/05/11 04:54:36;;;;;;;14.60;6.20;;;;;;;;;;5042827;28;20052;-63
2022/05/11 04:57:03;;;;;;;16.13;5.75;;;;;;;;;;5045031;28;20088;-63
2022/05/11 04:59:29;;;;;;;16.10;5.53;;;;;;;;;;5041979;28;20529;-64
2022/05/11 05:01:55;;;;;;;18.65;5.70;;;;;;;;;;5043796;28;20461;-66
2022/05/11 05:04:21;;;;;;;15.80;5.65;;;;;;;;;;5041401;28;20049;-62
2022/05/11 05:06:46;;;;;;;12.07;5.20;;;;;;;;;;5042834;28;20064;-62
2022/05/11 05:09:13;;;;;;;13.10;6.22;;;;;;;;;;5042333;28;20187;-63
2022/05/11 05:11:39;;;;;;;16.63;5.78;;;;;;;;;;5040616;28;20183;-62
2022/05/11 05:14:05;;;;;;;20.80;5.93;;;;;;;;;;5041849;28;20052;-65
2022/05/11 05:16:34;;;;;;;16.17;6.05;;;;;;;;;;5040631;28;20503;-64
2022/05/11 05:19:01;;;;;;;17.33;6.07;;;;;;;;;;5045393;28;20073;-65
2022/05/11 05:21:27;;;;;;;18.95;5.78;;;;;;;;;;5040073;28;20400;-62
2022/05/11 05:23:53;;;;;;;17.92;6.25;;;;;;;;;;5036275;28;20436;-65
2022/05/11 05:26:19;;;;;;;16.13;5.80;;;;;;;;;;5042571;28;20060;-62
2022/05/11 05:31:30;;;;;;;13.27;5.32;;;;;;;;;;5039198;28;20140;-62
2022/05/11 05:33:59;;;;;;;20.95;4.97;;;;;;;;;;5040067;28;20425;-64
2022/05/11 05:36:39;;;;;;;21.48;5.40;;;;;;;;;;5042146;28;20108;-62
2022/05/11 05:39:05;;;;;;;12.52;5.30;;;;;;;;;;5042256;28;20186;-64
2022/05/11 05:41:32;;;;;;;13.15;4.85;;;;;;;;;;5040490;28;20618;-64
2022/05/11 05:43:58;;;;;;;13.05;5.13;;;;;;;;;;5040325;28;20130;-63
2022/05/11 05:46:24;;;;;;;15.93;5.85;;;;;;;;;;5042621;28;20041;-63
2022/05/11 05:48:51;;;;;;;15.70;5.68;;;;;;;;;;5045166;28;20053;-64
2022/05/11 05:51:19;;;;;;;19.48;5.57;;;;;;;;;;5044335;28;20053;-66
2022/05/11 05:53:46;;;;;;;12.35;5.63;;;;;;;;;;5041462;28;20073;-62
2022/05/11 05:56:13;;;;;;;13.98;5.13;;;;;;;;;;5037097;28;20049;-64
2022/05/11 05:58:39;;;;;;;17.80;5.03;;;;;;;;;;5042842;28;20746;-63
2022/05/11 06:01:06;;;;;;;14.57;4.90;;;;;;;;;;5044097;28;20500;-66
2022/05/11 06:03:34;;;;;;;14.75;5.30;;;;;;;;;;5035606;28;20044;-67
2022/05/11 06:06:00;;;;;;;14.15;5.75;;;;;;;;;;5064110;28;20041;-67
2022/05/11 06:08:27;;;;;;;30.75;5.30;;;;;;;;;;5036937;28;20057;-66
2022/05/11 06:10:55;;;;;;;17.05;5.88;;;;;;;;;;5035787;28;20387;-67
2022/05/11 06:13:22;;;;;;;20.23;6.15;;;;;;;;;;5037570;28;20175;-65
2022/05/11 06:15:54;;;;;;;14.68;6.55;;;;;;;;;;5047288;28;20511;-63
2022/05/11 06:18:21;;;;;;;19.08;6.25;;;;;;;;;;5046947;28;20049;-63
2022/05/11 06:20:51;;;;;;;28.58;7.22;;;;;;;;;;5039950;28;20129;-64
2022/05/11 06:23:21;;;;;;;15.82;6.00;;;;;;;;;;5043665;28;20166;-63
2022/05/11 06:25:51;;;;;;;15.35;6.10;;;;;;;;;;5038952;28;20049;-61
2022/05/11 06:28:18;;;;;;;27.80;6.60;;;;;;;;;;5041789;28;20053;-61
2022/05/11 06:30:46;;;;;;;16.00;6.25;;;;;;;;;;5034376;28;20500;-63
2022/05/11 06:33:12;;;;;;;21.05;7.45;;;;;;;;;;5039115;28;20488;-63
2022/05/11 06:35:38;;;;;;;19.33;7.20;;;;;;;;;;5037098;28;20045;-62
2022/05/11 06:38:06;;;;;;;20.88;7.22;;;;;;;;;;5046154;28;20098;-62
2022/05/11 06:40:32;;;;;;;33.28;8.10;;;;;;;;;;5043348;28;20045;-63
2022/05/11 06:42:58;;;;;;;17.50;7.20;;;;;;;;;;5038048;28;20048;-62
2022/05/11 06:45:24;;;;;;;16.98;7.03;;;;;;;;;;5036097;28;20053;-63
2022/05/11 06:47:50;;;;;;;24.80;6.68;;;;;;;;;;5037448;28;20071;-64
2022/05/11 06:50:17;;;;;;;20.90;6.75;;;;;;;;;;5041629;28;20053;-61
2022/05/11 06:52:43;;;;;;;24.15;6.25;;;;;;;;;;5046337;28;20037;-61
2022/05/11 07:00:39;;;;;;;17.20;6.82;;;;;;;;;;5038029;28;20107;-61
2022/05/11 07:03:05;;;;;;;20.33;6.78;;;;;;;;;;5043425;28;20048;-65
2022/05/11 07:05:32;;;;;;;19.55;7.10;;;;;;;;;;5030177;28;20038;-63
2022/05/11 07:07:58;;;;;;;20.83;7.32;;;;;;;;;;5045548;28;20053;-62
2022/05/11 07:10:25;;;;;;;19.58;7.05;;;;;;;;;;5041000;28;20037;-62
2022/05/11 07:12:50;;;;;;;18.98;7.15;;;;;;;;;;5040304;28;20052;-63
2022/05/11 07:15:19;;;;;;;27.77;8.13;;;;;;;;;;5044977;28;20412;-63
2022/05/11 07:17:53;;;;;;;21.17;6.65;;;;;;;;;;5031059;28;20076;-63
2022/05/11 07:20:27;;;;;;;21.42;6.90;;;;;;;;;;5032717;28;20151;-62
2022/05/11 07:22:53;;;;;;;18.52;7.47;;;;;;;;;;5034626;28;20052;-62
2022/05/11 07:25:21;;;;;;;22.42;7.38;;;;;;;;;;5045915;28;20484;-62
2022/05/11 07:27:48;;;;;;;17.58;6.05;;;;;;;;;;5038731;28;20049;-63
2022/05/11 07:30:19;;;;;;;20.23;5.80;;;;;;;;;;5075219;28;20457;-62
2022/05/11 07:32:45;;;;;;;15.57;6.50;;;;;;;;;;5046357;28;20038;-62
2022/05/11 07:35:11;;;;;;;10.30;5.18;;;;;;;;;;5044201;28;20094;-62
2022/05/11 07:37:38;;;;;;;21.00;5.68;;;;;;;;;;5048096;28;20451;-61
2022/05/11 07:40:06;;;;;;;14.85;5.68;;;;;;;;;;5055632;28;20037;-62
2022/05/11 07:42:32;;;;;;;24.27;6.15;;;;;;;;;;5048288;28;20595;-62
2022/05/11 07:44:58;;;;;;;13.70;5.38;;;;;;;;;;5048733;28;20483;-63
2022/05/11 07:47:24;;;;;;;16.17;5.43;;;;;;;;;;5062700;28;20048;-67
2022/05/11 07:49:50;;;;;;;16.70;4.78;;;;;;;;;;5050174;28;20607;-64
2022/05/11 07:52:16;;;;;;;19.95;4.75;;;;;;;;;;5037323;28;20048;-65
2022/05/11 07:54:44;;;;;;;25.58;5.70;;;;;;;;;;5047502;28;20057;-61
2022/05/11 07:59:56;;;;;;;12.30;4.45;;;;;;;;;;5044296;28;20136;-63
2022/05/11 08:02:26;;;;;;;9.48;4.10;;;;;;;;;;5048133;28;20042;-62
2022/05/11 08:04:57;;;;;;;14.50;4.35;;;;;;;;;;5047421;28;20053;-63
2022/05/11 08:07:26;;;;;;;14.88;4.85;;;;;;;;;;5047764;28;20556;-63
2022/05/11 08:09:59;;;;;;;16.73;4.82;;;;;;;;;;5035080;28;20522;-64
2022/05/11 08:12:26;;;;;;;11.77;3.63;;;;;;;;;;5047533;28;20061;-61
2022/05/11 08:14:53;;;;;;;12.70;3.85;;;;;;;;;;5034265;28;20055;-63
2022/05/11 08:17:24;;;;;;;18.00;4.82;;;;;;;;;;5030283;28;20447;-63
2022/05/11 08:19:50;;;;;;;16.80;4.55;;;;;;;;;;5028091;28;20493;-64
2022/05/11 08:22:16;;;;;;;12.25;3.90;;;;;;;;;;5037306;28;20059;-63
2022/05/11 08:24:42;;;;;;;11.77;4.40;;;;;;;;;;5037827;28;20065;-63
2022/05/11 08:27:09;;;;;;;16.80;4.93;;;;;;;;;;5046951;28;20254;-65
2022/05/11 08:35:05;;;;;;;13.75;4.60;;;;;;;;;;5034383;28;20519;-65
2022/05/11 08:37:31;;;;;;;15.32;4.97;;;;;;;;;;5046931;28;20052;-64
2022/05/11 08:39:57;;;;;;;13.88;5.07;;;;;;;;;;5039556;28;20525;-66
2022/05/11 08:42:25;;;;;;;11.02;4.22;;;;;;;;;;5041119;28;20037;-65
2022/05/11 08:44:52;;;;;;;12.13;5.03;;;;;;;;;;5043897;28;20079;-65
2022/05/11 08:47:46;;;;;;;15.95;4.72;;;;;;;;;;5041788;28;20045;-62
2022/05/11 08:50:16;;;;;;;7.85;3.20;;;;;;;;;;5043177;28;20140;-62
2022/05/11 08:52:57;;;;;;;9.98;4.03;;;;;;;;;;5042776;28;20412;-65
2022/05/11 08:55:41;;;;;;;9.30;4.03;;;;;;;;;;5036854;28;20663;-64
2022/05/11 08:58:12;;;;;;;8.50;5.00;;;;;;;;;;5042998;28;20115;-65
2022/05/11 09:00:43;;;;;;;17.75;5.80;;;;;;;;;;5039181;28;20048;-64
2022/05/11 09:03:31;;;;;;;13.68;6.05;;;;;;;;;;5048867;28;20096;-64
2022/05/11 09:06:01;;;;;;;13.77;5.55;;;;;;;;;;5050433;28;20053;-65
2022/05/11 09:08:32;;;;;;;13.00;5.40;;;;;;;;;;5045403;28;20064;-67
2022/05/11 09:10:58;;;;;;;14.68;6.15;;;;;;;;;;5049761;28;20053;-64
2022/05/11 09:13:26;;;;;;;16.52;6.53;;;;;;;;;;5048848;28;20101;-65
2022/05/11 09:15:55;;;;;;;13.25;6.90;;;;;;;;;;5038562;28;20371;-67
2022/05/11 09:18:43;;;;;;;13.27;7.00;;;;;;;;;;5045048;28;20064;-65
2022/05/11 09:21:32;;;;;;;13.77;6.43;;;;;;;;;;5034561;28;20469;-63
2022/05/11 09:24:08;;;;;;;20.25;8.20;;;;;;;;;;5048922;28;20437;-64
2022/05/11 09:26:39;;;;;;;15.77;7.10;;;;;;;;;;5046088;28;20052;-65
2022/05/11 09:29:25;;;;;;;20.40;8.27;;;;;;;;;;5046299;28;20067;-65
2022/05/11 09:31:52;;;;;;;11.70;6.97;;;;;;;;;;5040545;28;20140;-65
2022/05/11 09:34:36;;;;;;;18.63;8.05;;;;;;;;;;5048098;28;20602;-65
2022/05/11 09:37:35;;;;;;;11.15;7.45;;;;;;;;;;5039431;28;20050;-63
2022/05/11 09:40:07;;;;;;;17.42;8.65;;;;;;;;;;5047061;28;20056;-63
2022/05/11 09:42:33;;;;;;;11.98;8.05;;;;;;;;;;5040262;28;20060;-65
2022/05/11 09:45:00;;;;;;;13.90;7.55;;;;;;;;;;5050903;28;20128;-63
2022/05/11 09:47:30;;;;;;;14.73;7.20;;;;;;;;;;5050306;28;20049;-66
2022/05/11 09:50:21;;;;;;;14.27;7.90;;;;;;;;;;5043486;28;20056;-64
2022/05/11 09:52:48;;;;;;;19.63;7.60;;;;;;;;;;5031022;28;20128;-63
2022/05/11 09:55:31;;;;;;;17.23;7.68;;;;;;;;;;5046702;28;20057;-62
2022/05/11 09:58:01;;;;;;;16.88;7.30;;;;;;;;;;5041591;28;20048;-63
2022/05/11 10:00:47;;;;;;;18.00;7.38;;;;;;;;;;5045204;28;20041;-63
2022/05/11 10:03:28;;;;;;;15.45;7.82;;;;;;;;;;5043171;28;20045;-64
2022/05/11 10:05:55;;;;;;;20.10;7.63;;;;;;;;;;5041327;28;20718;-64
2022/05/11 10:08:34;;;;;;;14.52;7.88;;;;;;;;;;5033520;28;20257;-65
2022/05/11 10:11:08;;;;;;;14.02;7.50;;;;;;;;;;5044196;28;20380;-65
2022/05/11 10:13:42;;;;;;;12.88;6.63;;;;;;;;;;5047007;28;20102;-65
2022/05/11 10:22:08;;;;;;;12.93;5.63;;;;;;;;;;5042862;28;20087;-63
2022/05/11 10:25:02;;;;;;;9.45;5.53;;;;;;;;;;5041209;28;20090;-63
2022/05/11 10:27:40;;;;;;;14.68;5.45;;;;;;;;;;5049504;28;20455;-64
2022/05/11 10:30:06;;;;;;;11.13;5.30;;;;;;;;;;5042990;28;20127;-62
2022/05/11 10:32:50;;;;;;;12.25;5.07;;;;;;;;;;5036611;28;20512;-63
2022/05/11 10:35:26;;;;;;;12.50;5.13;;;;;;;;;;5041685;28;20131;-62
2022/05/11 10:38:03;;;;;;;10.82;5.10;;;;;;;;;;5043335;28;21233;-67
2022/05/11 10:40:45;;;;;;;9.15;4.68;;;;;;;;;;5046047;28;20130;-67
2022/05/11 10:43:26;;;;;;;11.10;4.75;;;;;;;;;;5050336;28;20100;-70
2022/05/11 10:45:59;;;;;;;7.97;4.10;;;;;;;;;;5044144;28;20353;-64
2022/05/11 10:48:47;;;;;;;12.40;4.30;;;;;;;;;;5045480;28;20056;-65
2022/05/11 10:51:40;;;;;;;11.40;3.60;;;;;;;;;;5040749;28;20049;-63
2022/05/11 10:54:21;;;;;;;8.57;3.38;;;;;;;;;;5040321;28;20371;-63
2022/05/11 10:57:02;;;;;;;14.38;4.60;;;;;;;;;;5044130;28;20396;-66
2022/05/11 11:00:06;;;;;;;12.02;5.18;;;;;;;;;;5038073;28;20056;-63
2022/05/11 11:02:56;;;;;;;19.60;5.97;;;;;;;;;;5040818;28;20285;-65
2022/05/11 11:05:40;;;;;;;14.75;5.43;;;;;;;;;;5038622;28;20144;-66
2022/05/11 11:08:22;;;;;;;13.18;4.93;;;;;;;;;;5042801;28;20709;-63
2022/05/11 11:11:13;;;;;;;12.95;4.90;;;;;;;;;;5035405;28;20050;-63
2022/05/11 11:13:54;;;;;;;9.90;5.13;;;;;;;;;;5040061;28;20037;-63
2022/05/11 11:16:26;;;;;;;11.65;5.03;;;;;;;;;;5038135;28;20054;-66
2022/05/11 11:18:52;;;;;;;7.63;4.55;;;;;;;;;;5042188;28;20360;-63
2022/05/11 11:21:20;;;;;;;11.88;4.68;;;;;;;;;;5036129;28;20095;-64
2022/05/11 11:24:11;;;;;;;12.82;5.25;;;;;;;;;;5040341;28;20097;-62
2022/05/11 11:26:59;;;;;;;8.70;4.50;;;;;;;;;;5039713;28;20580;-61
2022/05/11 11:29:28;;;;;;;17.27;5.25;;;;;;;;;;5040176;28;20059;-62
2022/05/11 11:32:20;;;;;;;11.60;4.32;;;;;;;;;;5041213;28;20045;-65
2022/05/11 11:34:47;;;;;;;10.20;4.40;;;;;;;;;;5038228;28;20049;-71
2022/05/11 11:37:25;;;;;;;14.43;4.53;;;;;;;;;;5038892;28;20103;-62
2022/05/11 11:39:54;;;;;;;13.50;4.38;;;;;;;;;;5037879;28;20053;-62
2022/05/11 11:42:41;;;;;;;11.57;4.10;;;;;;;;;;5042062;28;20098;-61
2022/05/11 11:45:27;;;;;;;10.48;4.47;;;;;;;;;;5048020;28;20048;-62
2022/05/11 11:48:18;;;;;;;7.85;4.07;;;;;;;;;;5040002;28;20049;-63
2022/05/11 11:50:53;;;;;;;11.63;4.70;;;;;;;;;;5044082;28;20045;-64
2022/05/11 11:53:22;;;;;;;12.27;4.43;;;;;;;;;;5043943;28;20072;-64
2022/05/11 11:55:48;;;;;;;8.38;3.78;;;;;;;;;;5042702;28;20045;-65
2022/05/11 11:58:39;;;;;;;8.02;3.60;;;;;;;;;;5049766;28;20068;-64
2022/05/11 12:01:09;;;;;;;7.00;3.40;;;;;;;;;;5049188;28;20049;-69
2022/05/11 12:03:51;;;;;;;11.80;3.92;;;;;;;;;;5044560;28;20625;-65
2022/05/11 12:15:03;;;;;;;7.88;3.08;;;;;;;;;;5046391;28;20558;-63
2022/05/11 12:17:37;;;;;;;6.25;3.13;;;;;;;;;;5048825;28;20057;-65
2022/05/11 12:20:14;;;;;;;5.18;2.70;;;;;;;;;;5059450;28;20049;-65
2022/05/11 12:22:52;;;;;;;10.23;3.03;;;;;;;;;;5051559;28;20049;-65
2022/05/11 12:25:36;;;;;;;9.70;3.10;;;;;;;;;;5041847;28;20070;-63
2022/05/11 12:28:22;;;;;;;13.57;3.60;;;;;;;;;;5048538;28;20044;-66
2022/05/11 12:30:48;;;;;;;5.05;2.50;;;;;;;;;;5048484;28;20049;-67
2022/05/11 12:33:27;;;;;;;9.77;3.05;;;;;;;;;;5045945;28;20512;-66
2022/05/11 12:35:53;;;;;;;9.95;2.97;;;;;;;;;;5052965;28;20044;-65
2022/05/11 12:38:40;;;;;;;11.80;3.22;;;;;;;;;;5050913;28;20052;-69
2022/05/11 12:41:18;;;;;;;9.10;3.20;;;;;;;;;;5043598;28;20056;-65
2022/05/11 12:44:03;;;;;;;14.50;2.92;;;;;;;;;;5046264;28;20420;-65
2022/05/11 12:46:30;;;;;;;11.02;3.13;;;;;;;;;;5047728;28;20349;-64
2022/05/11 12:48:59;;;;;;;12.10;3.15;;;;;;;;;;5048908;28;20107;-64
2022/05/11 12:51:35;;;;;;;9.38;2.90;;;;;;;;;;5041346;28;20045;-65
2022/05/11 12:54:08;;;;;;;7.70;3.10;;;;;;;;;;5038955;28;20384;-66
2022/05/11 12:56:38;;;;;;;8.90;2.80;;;;;;;;;;5047289;28;20131;-66
2022/05/11 12:59:19;;;;;;;9.32;2.80;;;;;;;;;;5049310;28;20049;-64
2022/05/11 13:01:46;;;;;;;8.57;2.85;;;;;;;;;;5043903;28;20045;-64
2022/05/11 13:04:23;;;;;;;8.63;2.83;;;;;;;;;;5047220;28;20151;-65
2022/05/11 13:06:52;;;;;;;17.48;3.20;;;;;;;;;;5045180;28;20044;-63
2022/05/11 13:09:32;;;;;;;10.63;3.10;;;;;;;;;;5047905;28;20107;-66
2022/05/11 13:11:59;;;;;;;11.45;2.97;;;;;;;;;;5039540;28;20049;-62
2022/05/11 13:14:35;;;;;;;11.40;3.10;;;;;;;;;;5043210;28;20043;-64
2022/05/11 13:17:05;;;;;;;10.95;3.25;;;;;;;;;;5042128;28;20057;-68
2022/05/11 13:19:37;;;;;;;7.75;2.53;;;;;;;;;;5050079;28;20041;-64
2022/05/11 13:22:12;;;;;;;19.08;3.38;;;;;;;;;;5048492;28;20085;-64
2022/05/11 13:24:51;;;;;;;16.55;2.80;;;;;;;;;;5047289;28;20208;-66
2022/05/11 13:27:46;;;;;;;10.60;2.92;;;;;;;;;;5047210;28;20188;-70
2022/05/11 13:30:21;;;;;;;12.43;3.15;;;;;;;;;;5029318;28;20037;-66
2022/05/11 13:32:47;;;;;;;10.57;2.75;;;;;;;;;;5040438;28;20048;-65
2022/05/11 13:35:22;;;;;;;14.02;3.22;;;;;;;;;;5047089;28;20138;-66
2022/05/11 13:37:54;;;;;;;13.20;3.15;;;;;;;;;;5036268;28;20076;-65
2022/05/11 13:40:27;;;;;;;10.93;3.17;;;;;;;;;;5043158;28;20389;-64
2022/05/11 13:42:54;;;;;;;9.50;3.10;;;;;;;;;;5047692;28;20049;-63
2022/05/11 13:45:21;;;;;;;13.57;3.10;;;;;;;;;;5047352;28;20037;-64
2022/05/11 13:50:39;;;;;;;8.90;3.00;;;;;;;;;;5045700;28;20080;-65
2022/05/11 13:53:20;;;;;;;15.13;3.65;;;;;;;;;;5043396;28;20057;-72
2022/05/11 13:56:00;;;;;;;14.93;3.75;;;;;;;;;;5040789;28;20490;-70
2022/05/11 13:58:29;;;;;;;10.95;3.08;;;;;;;;;;5039963;28;20127;-70
2022/05/11 14:01:10;;;;;;;13.52;3.58;;;;;;;;;;5048057;28;20053;-69
2022/05/11 14:03:44;;;;;;;13.55;2.97;;;;;;;;;;5045515;28;20067;-66
2022/05/11 14:06:15;;;;;;;11.55;3.00;;;;;;;;;;5030022;28;20056;-71
2022/05/11 14:08:42;;;;;;;13.48;3.40;;;;;;;;;;5037380;28;20052;-69
2022/05/11 14:11:08;;;;;;;14.15;3.00;;;;;;;;;;5043583;28;20124;-68
2022/05/11 14:13:34;;;;;;;15.80;3.22;;;;;;;;;;5033335;28;20132;-67
2022/05/11 14:16:01;;;;;;;15.48;3.30;;;;;;;;;;5049178;28;20063;-67
2022/05/11 14:18:28;;;;;;;11.60;3.33;;;;;;;;;;5048434;28;20135;-68
2022/05/11 14:20:54;;;;;;;13.13;3.17;;;;;;;;;;5046744;28;20132;-69
2022/05/11 14:23:20;;;;;;;15.90;2.70;;;;;;;;;;5046470;28;20059;-68
2022/05/11 14:25:46;;;;;;;11.43;2.80;;;;;;;;;;5046182;28;20057;-67
2022/05/11 14:28:12;;;;;;;16.17;2.85;;;;;;;;;;5040394;28;20052;-68
2022/05/11 14:30:39;;;;;;;13.20;3.13;;;;;;;;;;5036568;28;20044;-67
2022/05/11 14:33:06;;;;;;;19.15;3.28;;;;;;;;;;5046434;28;20040;-68
2022/05/11 14:35:32;;;;;;;14.60;2.63;;;;;;;;;;5048254;28;20084;-70
2022/05/11 14:37:58;;;;;;;16.05;3.00;;;;;;;;;;5046185;28;20048;-71
2022/05/11 14:40:27;;;;;;;10.70;3.15;;;;;;;;;;5046488;28;20094;-68
2022/05/11 14:42:53;;;;;;;14.40;2.95;;;;;;;;;;5046320;28;20068;-70
2022/05/11 14:45:19;;;;;;;14.20;2.95;;;;;;;;;;5042240;28;20040;-69
2022/05/11 14:47:54;;;;;;;10.25;3.50;;;;;;;;;;5042204;28;20527;-69
2022/05/11 14:50:21;;;;;;;14.02;2.97;;;;;;;;;;5048194;28;20036;-70
2022/05/11 14:52:49;;;;;;;13.25;3.28;;;;;;;;;;5043228;28;20041;-67
2022/05/11 14:55:17;;;;;;;12.00;3.15;;;;;;;;;;5055896;28;20551;-70
2022/05/11 15:03:13;;;;;;;13.23;2.58;;;;;;;;;;5049925;28;20060;-68
2022/05/11 15:05:39;;;;;;;19.90;3.25;;;;;;;;;;5049733;28;20412;-70
2022/05/11 15:08:06;;;;;;;14.90;2.75;;;;;;;;;;5049011;28;20512;-69
2022/05/11 15:10:32;;;;;;;9.15;2.58;;;;;;;;;;5047879;28;20522;-69
2022/05/11 15:15:42;;;;;;;15.20;2.80;;;;;;;;;;5046447;28;20041;-68
2022/05/11 15:18:11;;;;;;;11.60;3.03;;;;;;;;;;5045162;28;20048;-68
2022/05/11 15:20:38;;;;;;;14.77;3.00;;;;;;;;;;5047132;28;20037;-69
2022/05/11 15:23:05;;;;;;;17.52;2.72;;;;;;;;;;5046406;28;20731;-69
2022/05/11 15:25:31;;;;;;;15.63;3.10;;;;;;;;;;5041617;28;20404;-68
2022/05/11 15:27:57;;;;;;;17.63;3.40;;;;;;;;;;5036104;28;20052;-68
2022/05/11 15:30:25;;;;;;;15.30;2.65;;;;;;;;;;5034270;28;20056;-68
2022/05/11 15:32:56;;;;;;;12.00;2.30;;;;;;;;;;5046394;28;20045;-66
2022/05/11 15:35:22;;;;;;;13.80;2.95;;;;;;;;;;5047639;28;20049;-70
2022/05/11 15:37:48;;;;;;;10.20;2.83;;;;;;;;;;5049053;28;20103;-68
2022/05/11 15:40:15;;;;;;;13.15;2.78;;;;;;;;;;5047901;28;20815;-68